Michigan — WDF5344 — position and weather

sailwx.info

Track history (hours):
 
Tides and Currents Weather Stations Pressure Air Temp Water Temp Dewpoint Dewpoint Depression Visibility Wind Speed Wind Dir Waves Ship Positions

Michigan

Owner: GATX Third Aircraft Corporation, San Francisco, CA. More information available from US FCC via Universal Licensing System and Coast Guard Vessel Documentation Center.

Last reported at 2015-Jun-28 20:33 UTC. Time now 2015-Jun-30 12:39 UTC.
Position N 44°08' W 076°20'.

Length 144 m.

Type: Ship (hazmat cat D). MMSI: 303583000.

Date/timePositionNaut miles runAvg speedWind from/ knotsBaromVisibWave heightAir tempDewpointWater temp
2015-Jun-28 20:33N 44°08' W 076°20'610.6
2015-Jun-28 20:00N 44°06' W 076°12'613.9 050 / 111005.0 5.4 0.514.4
2015-Jun-28 19:34N 44°08' W 076°20'0 0.0
2015-Jun-28 18:33N 44°08' W 076°20'0 0.0
2015-Jun-28 17:33N 44°08' W 076°20'0 0.0
2015-Jun-28 16:33N 44°08' W 076°20'0 0.0
2015-Jun-28 15:33N 44°08' W 076°20'0 0.0
2015-Jun-28 14:33N 44°08' W 076°20'0 0.0
2015-Jun-28 13:34N 44°08' W 076°20'0 0.0
2015-Jun-28 12:34N 44°08' W 076°20'0 0.0
2015-Jun-28 11:34N 44°08' W 076°20'0 0.0
2015-Jun-28 10:34N 44°08' W 076°20'0 0.0
2015-Jun-28 09:34N 44°08' W 076°20'0 0.0
2015-Jun-28 08:34N 44°08' W 076°20'0 0.0
2015-Jun-28 07:34N 44°08' W 076°20'0 0.2
2015-Jun-28 06:32N 44°08' W 076°20'6 6.0
2015-Jun-28 05:33N 44°12' W 076°14'116 7.8
2015-Jun-27 14:33N 45°16' W 073°57'2 2.4
2015-Jun-27 13:33N 45°18' W 073°56'1 1.0
2015-Jun-27 12:33N 45°19' W 073°55'8 8.2
2015-Jun-27 11:32N 45°24' W 073°46'7 7.4
2015-Jun-27 10:33N 45°24' W 073°35'4 3.6
2015-Jun-27 09:30N 45°26' W 073°30'4 3.8
2015-Jun-27 08:21N 45°30' W 073°31'0 0.0
2015-Jun-25 16:07N 45°30' W 073°31'1 0.7
2015-Jun-25 15:16N 45°30' W 073°31'4 6.0
2015-Jun-25 14:33N 45°25' W 073°30'6 4.1
2015-Jun-25 13:12N 45°24' W 073°38'5 8.1
2015-Jun-25 12:33N 45°24' W 073°46'9 8.4
2015-Jun-25 11:32N 45°19' W 073°55'1 1.2
2015-Jun-25 10:33N 45°18' W 073°56'9 7.8
2015-Jun-25 09:27N 45°13' W 074°07'113 6.3
2015-Jun-24 15:34N 44°11' W 076°19'8 8.1
2015-Jun-24 14:33N 44°04' W 076°25'130 6.7
2015-Jun-23 19:00N 43°06' W 079°06'0 0.0 270 / 141009.110.8 0.522.2
2015-Jun-23 17:00N 43°06' W 079°06'0 0.0 280 / 161007.410.8 0.523.3
2015-Jun-23 08:00N 43°06' W 079°06'0 0.0 230 / 231006.4 5.4 0.517.7
2015-Jun-23 04:00N 43°06' W 079°06'37 1.7 190 / 151014.810.8 0.521.1
2015-Jun-22 06:08N 42°37' W 079°38'610.3
2015-Jun-22 05:33N 42°34' W 079°44'1010.3
2015-Jun-22 04:33N 42°28' W 079°56'1210.1
2015-Jun-22 03:25N 42°23' W 080°10'263 6.6
2015-Jun-20 11:33N 45°40' W 084°13'1010.0
2015-Jun-20 10:33N 45°42' W 084°27'1010.2
2015-Jun-20 09:33N 45°47' W 084°40'1010.1
2015-Jun-20 08:33N 45°50' W 084°54'1110.4
2015-Jun-20 07:32N 45°51' W 085°09'1010.3
2015-Jun-20 06:33N 45°53' W 085°23'10 9.9
2015-Jun-20 05:33N 45°52' W 085°37'1010.2
2015-Jun-20 04:33N 45°48' W 085°51'1010.4
2015-Jun-20 03:33N 45°43' W 086°04'1010.4
2015-Jun-20 02:33N 45°38' W 086°17'  
Track history (hours):
 
Tides and Currents Weather Stations Pressure Air Temp Water Temp Dewpoint Dewpoint Depression Visibility Wind Speed Wind Dir Waves Ship Positions

Michigan

Owner: GATX Third Aircraft Corporation, San Francisco, CA. More information available from US FCC via Universal Licensing System and Coast Guard Vessel Documentation Center.

Last reported at 2015-Jun-28 20:33 UTC. Time now 2015-Jun-30 12:39 UTC.
Position N 44°08' W 076°20'.

Length 144 m.

Type: Ship (hazmat cat D). MMSI: 303583000.

Date/timePositionNaut miles runAvg speedWind from/ knotsBaromVisibWave heightAir tempDewpointWater temp
2015-Jun-28 20:33N 44°08' W 076°20'610.6
2015-Jun-28 20:00N 44°06' W 076°12'613.9 050 / 111005.0 5.4 0.514.4
2015-Jun-28 19:34N 44°08' W 076°20'0 0.0
2015-Jun-28 18:33N 44°08' W 076°20'0 0.0
2015-Jun-28 17:33N 44°08' W 076°20'0 0.0
2015-Jun-28 16:33N 44°08' W 076°20'0 0.0
2015-Jun-28 15:33N 44°08' W 076°20'0 0.0
2015-Jun-28 14:33N 44°08' W 076°20'0 0.0
2015-Jun-28 13:34N 44°08' W 076°20'0 0.0
2015-Jun-28 12:34N 44°08' W 076°20'0 0.0
2015-Jun-28 11:34N 44°08' W 076°20'0 0.0
2015-Jun-28 10:34N 44°08' W 076°20'0 0.0
2015-Jun-28 09:34N 44°08' W 076°20'0 0.0
2015-Jun-28 08:34N 44°08' W 076°20'0 0.0
2015-Jun-28 07:34N 44°08' W 076°20'0 0.2
2015-Jun-28 06:32N 44°08' W 076°20'6 6.0
2015-Jun-28 05:33N 44°12' W 076°14'116 7.8
2015-Jun-27 14:33N 45°16' W 073°57'2 2.4
2015-Jun-27 13:33N 45°18' W 073°56'1 1.0
2015-Jun-27 12:33N 45°19' W 073°55'8 8.2
2015-Jun-27 11:32N 45°24' W 073°46'7 7.4
2015-Jun-27 10:33N 45°24' W 073°35'4 3.6
2015-Jun-27 09:30N 45°26' W 073°30'4 3.8
2015-Jun-27 08:21N 45°30' W 073°31'0 0.0
2015-Jun-25 16:07N 45°30' W 073°31'1 0.7
2015-Jun-25 15:16N 45°30' W 073°31'4 6.0
2015-Jun-25 14:33N 45°25' W 073°30'6 4.1
2015-Jun-25 13:12N 45°24' W 073°38'5 8.1
2015-Jun-25 12:33N 45°24' W 073°46'9 8.4
2015-Jun-25 11:32N 45°19' W 073°55'1 1.2
2015-Jun-25 10:33N 45°18' W 073°56'9 7.8
2015-Jun-25 09:27N 45°13' W 074°07'113 6.3
2015-Jun-24 15:34N 44°11' W 076°19'8 8.1
2015-Jun-24 14:33N 44°04' W 076°25'130 6.7
2015-Jun-23 19:00N 43°06' W 079°06'0 0.0 270 / 141009.110.8 0.522.2
2015-Jun-23 17:00N 43°06' W 079°06'0 0.0 280 / 161007.410.8 0.523.3
2015-Jun-23 08:00N 43°06' W 079°06'0 0.0 230 / 231006.4 5.4 0.517.7
2015-Jun-23 04:00N 43°06' W 079°06'37 1.7 190 / 151014.810.8 0.521.1
2015-Jun-22 06:08N 42°37' W 079°38'610.3
2015-Jun-22 05:33N 42°34' W 079°44'1010.3
2015-Jun-22 04:33N 42°28' W 079°56'1210.1
2015-Jun-22 03:25N 42°23' W 080°10'263 6.6
2015-Jun-20 11:33N 45°40' W 084°13'1010.0
2015-Jun-20 10:33N 45°42' W 084°27'1010.2
2015-Jun-20 09:33N 45°47' W 084°40'1010.1
2015-Jun-20 08:33N 45°50' W 084°54'1110.4
2015-Jun-20 07:32N 45°51' W 085°09'1010.3
2015-Jun-20 06:33N 45°53' W 085°23'10 9.9
2015-Jun-20 05:33N 45°52' W 085°37'1010.2
2015-Jun-20 04:33N 45°48' W 085°51'1010.4
2015-Jun-20 03:33N 45°43' W 086°04'1010.4
2015-Jun-20 02:33N 45°38' W 086°17'  

Dump ship's entire track history